Manassas Park, Virginia
Current Conditions -  °F | °C
As of 3:35 AM on Thursday 29 Jan 2015 (Local Time) from KHEF Reporting Station
Clear Clear  
Wind Chill: 16°   Ceiling: Unl
Heat Index: 16°   Visibility: 10mi
Dew Point: 14°   Wind: 0mph
Humidity: 93%   Direction: NA
Pressure: 30.34"   Gusts: NA
Location:  38.7486°N, 77.432°W
Report Text: KHEF 290835Z 00000KT 10SM CLR M09/M10 A3034 RMK AO1
Loading
Personal Weather Stations






























Interactive Weather Map New forecast layout! Learn more

10-Day Weather Forecast

Advertisements
Track Severe Weather on mobile